Impacts TAF Board
For situational awareness. Not to be used for flight planning purposes.
IDs:

KJFK - New York/Kennedy Int, NY, US

Issued at 1942 UTC 23 Oct 2021
Updated at 2010 UTC 23 Oct 2021
Potential Impact None Slight Moderate High
Time1951Z 23/21Z 23/22Z 23/23Z 24/00Z 24/01Z 24/02Z 24/03Z 24/04Z 24/05Z 24/06Z 24/07Z 24/08Z 24/09Z>>
Type OBS PRVL PRVL PRVL PRVL PRVL PRVL PRVL PRVL PRVL PRVL PRVL PRVL PRVL
VIS 10 >6 >6 >6 >6 >6 >6 >6 >6 >6 >6 >6 >6 >6
CIG 200 60 60 60 60 60 60 100 100 -- -- -- -- --
Cover BKN BKN BKN BKN BKN BKN BKN BKN BKN SCT SCT SCT SCT SCT
FltCat VFR VFR VFR VFR VFR VFR VFR VFR VFR VFR VFR VFR VFR VFR
WX -- VCSH VCSH VCSH VCSH VCSH VCSH -- -- -- -- -- -- --
WDir 300 270 270 270 270 270 270 300 300 300 300 300 300 300
WSpd 8 7 7 7 7 7 7 8 8 7 7 7 7 7
WGst -- -- -- -- -- -- -- -- -- -- -- -- -- --
Raw TAF
KJFK 231942Z 2320/2424 28007KT P6SM BKN060
  FM232100 27007KT P6SM VCSH BKN060
  FM240300 30008KT P6SM BKN100
  FM240500 30007KT P6SM SCT250
  FM241700 25006KT P6SM FEW250
  FM242000 22007KT P6SM SCT250


Raw METAR
KJFK 231951Z 30008KT 10SM FEW100 SCT130 BKN200 16/06 A2994 RMK AO2 SLP137 T01560056
KJFK 231851Z 27007KT 10SM FEW050 BKN080 BKN120 16/05 A2994 RMK AO2 SLP137 T01610050
KJFK 231751Z 31008KT 10SM SCT050 BKN075 BKN100 16/05 A2996 RMK AO2 SLP144 60000 T01560050 10167 20106 58015

METAR Board
Radar Display
Forecast Discussion
For situational awareness. Not to be used for flight planning purposes.